createdAt,value
2016-10-04T10:04:52.940Z,1036.99
2016-10-04T10:09:52.886Z,1036.94
2016-10-04T10:14:52.832Z,1036.98
2016-10-04T10:19:52.782Z,1036.91
2016-10-04T10:24:52.728Z,1037
2016-10-04T10:29:52.678Z,1037.03
2016-10-04T10:34:52.640Z,1036.94
2016-10-04T10:39:52.582Z,1036.91
2016-10-04T10:44:52.535Z,1036.9
2016-10-04T10:49:52.490Z,1036.89
2016-10-04T10:54:52.448Z,1036.85
2016-10-04T10:59:52.400Z,1036.81
2016-10-04T11:04:52.355Z,1036.92
2016-10-04T11:09:52.310Z,1036.79
2016-10-04T11:14:52.271Z,1036.77
2016-10-04T11:19:52.220Z,1036.81
2016-10-04T11:24:52.181Z,1036.79
2016-10-04T11:29:52.134Z,1036.82
2016-10-04T11:34:52.086Z,1036.87
2016-10-04T11:55:11.889Z,1036.77
2016-10-04T12:01:48.069Z,1036.77
2016-10-04T12:06:48.019Z,1036.84
2016-10-04T12:11:47.963Z,1036.88
2016-10-04T12:16:47.912Z,1036.85
2016-10-04T12:21:47.864Z,1036.86
2016-10-04T12:26:47.816Z,1036.84
2016-10-04T12:31:47.769Z,1036.82
2016-10-04T12:36:47.719Z,1036.8
2016-10-04T12:41:47.674Z,1036.77
2016-10-04T12:46:47.630Z,1036.77
2016-10-04T12:51:47.584Z,1036.72
2016-10-04T12:56:47.539Z,1036.67
2016-10-04T13:01:47.496Z,1036.61
2016-10-04T13:06:47.450Z,1036.59
2016-10-04T13:11:47.414Z,1036.55
2016-10-04T13:16:47.359Z,1036.58
2016-10-04T13:21:47.317Z,1036.61
2016-10-04T13:26:47.272Z,1036.6
2016-10-04T13:31:47.226Z,1036.55
2016-10-04T13:36:47.181Z,1036.61
2016-10-04T13:41:47.145Z,1036.57
2016-10-04T13:46:47.091Z,1036.64
2016-10-04T13:51:47.045Z,1036.55
2016-10-04T13:56:47.010Z,1036.57
2016-10-04T14:01:46.958Z,1036.63
2016-10-04T14:06:46.913Z,1036.49
2016-10-04T14:11:46.869Z,1036.57
2016-10-04T14:16:46.827Z,1036.59
2016-10-04T14:21:46.784Z,1036.62
2016-10-04T14:26:46.735Z,1036.54
2016-10-04T14:31:46.689Z,1036.61
2016-10-04T14:36:46.644Z,1036.55
2016-10-04T14:41:46.594Z,1036.66
2016-10-04T14:46:46.552Z,1036.52
2016-10-04T14:51:46.506Z,1036.43
2016-10-04T14:56:46.460Z,1036.45
2016-10-04T15:01:46.413Z,1036.42
2016-10-04T15:06:46.369Z,1036.41
2016-10-04T15:11:46.327Z,1036.35
2016-10-04T15:16:46.284Z,1036.38
2016-10-04T15:21:46.240Z,1036.29
2016-10-04T15:26:46.197Z,1036.34
2016-10-04T15:31:46.160Z,1036.31
2016-10-04T15:36:46.117Z,1036.37
2016-10-04T15:41:46.075Z,1036.36
2016-10-04T15:46:46.036Z,1036.4
2016-10-04T15:51:45.992Z,1036.4
2016-10-04T15:56:45.948Z,1036.39
2016-10-04T16:01:45.908Z,1036.41
2016-10-04T16:06:45.868Z,1036.49
2016-10-04T16:11:45.825Z,1036.54
2016-10-04T16:16:45.787Z,1036.48
2016-10-04T16:21:45.749Z,1036.49
2016-10-04T16:26:45.707Z,1036.47
2016-10-04T16:31:45.664Z,1036.46
2016-10-04T16:36:45.623Z,1036.5
2016-10-04T16:41:45.584Z,1036.47
2016-10-04T16:46:45.548Z,1036.59
2016-10-04T16:51:45.506Z,1036.58
2016-10-04T16:56:45.459Z,1036.68
2016-10-04T17:01:45.417Z,1036.74
2016-10-04T17:06:45.373Z,1036.78
2016-10-04T17:13:13.726Z,1036.86
2016-10-04T17:18:13.677Z,1036.88
2016-10-04T17:23:13.636Z,1036.95
2016-10-04T17:28:13.593Z,1036.98
2016-10-04T17:33:13.549Z,1037
2016-10-04T17:38:13.510Z,1037.03
2016-10-04T17:43:13.463Z,1037.03
2016-10-04T17:48:13.420Z,1037.04
2016-10-04T17:53:13.380Z,1037.07
2016-10-04T17:58:13.331Z,1037.16
2016-10-04T18:03:13.286Z,1037.17
2016-10-04T18:08:13.245Z,1037.23
2016-10-04T18:13:13.199Z,1037.22
2016-10-04T18:18:13.157Z,1037.23
2016-10-04T18:23:13.116Z,1037.23
2016-10-04T18:28:13.067Z,1037.23
2016-10-04T18:33:13.026Z,1037.29
2016-10-04T18:38:12.981Z,1037.31
2016-10-04T18:43:12.939Z,1037.33
2016-10-04T18:48:12.896Z,1037.35
2016-10-04T18:53:12.850Z,1037.36
2016-10-04T18:58:12.805Z,1037.3
2016-10-04T19:03:12.760Z,1037.35
2016-10-04T19:08:12.715Z,1037.44
2016-10-04T19:13:12.672Z,1037.44
2016-10-04T19:18:12.625Z,1037.44
2016-10-04T19:23:12.585Z,1037.54
2016-10-04T19:28:12.537Z,1037.55
2016-10-04T19:33:12.495Z,1037.55
2016-10-04T19:38:12.446Z,1037.61
2016-10-04T19:43:12.403Z,1037.63
2016-10-04T19:48:12.356Z,1037.62
2016-10-04T19:53:12.316Z,1037.63
2016-10-04T19:58:12.268Z,1037.65
2016-10-04T20:03:12.224Z,1037.66
2016-10-04T20:08:12.176Z,1037.65
2016-10-04T20:13:12.129Z,1037.63
2016-10-04T20:18:12.083Z,1037.62
2016-10-04T20:23:12.040Z,1037.66
2016-10-04T20:28:11.994Z,1037.72
2016-10-04T20:33:11.948Z,1037.74
2016-10-04T20:38:11.908Z,1037.8
2016-10-04T20:43:11.860Z,1037.78
2016-10-04T20:48:11.815Z,1037.8
2016-10-04T20:53:11.766Z,1037.8
2016-10-04T20:58:11.721Z,1037.81
2016-10-04T21:03:11.673Z,1037.84
2016-10-04T21:08:11.628Z,1037.86
2016-10-04T21:13:11.595Z,1037.83
2016-10-04T21:18:11.536Z,1037.82
2016-10-04T21:23:11.491Z,1037.85
2016-10-04T21:28:11.445Z,1037.96
2016-10-04T21:33:11.396Z,1037.9
2016-10-04T21:38:11.350Z,1037.89
2016-10-04T21:43:11.307Z,1037.96
2016-10-04T21:48:11.253Z,1037.95
2016-10-04T21:53:11.206Z,1037.92
2016-10-04T21:58:11.158Z,1037.94
2016-10-04T22:03:11.108Z,1037.94
2016-10-04T22:08:11.060Z,1038.07
2016-10-04T22:13:11.010Z,1038.07
2016-10-04T22:18:10.962Z,1037.98
2016-10-04T22:23:10.912Z,1037.94
2016-10-04T22:28:10.862Z,1037.9
2016-10-04T22:33:10.812Z,1037.96
2016-10-04T22:38:10.761Z,1038.03
2016-10-04T22:43:10.711Z,1038.01
2016-10-04T22:48:10.660Z,1038.04
2016-10-04T22:53:10.612Z,1037.93
2016-10-04T22:58:10.558Z,1037.95
2016-10-04T23:03:10.513Z,1037.94
2016-10-04T23:08:10.456Z,1037.95
2016-10-04T23:13:10.406Z,1037.95
2016-10-04T23:18:10.356Z,1037.96
2016-10-04T23:23:10.304Z,1037.91
2016-10-04T23:28:10.252Z,1037.95
2016-10-04T23:33:10.203Z,1037.85
2016-10-04T23:38:10.155Z,1037.9
2016-10-04T23:43:10.099Z,1037.94
2016-10-04T23:48:10.046Z,1037.9
2016-10-04T23:53:09.996Z,1037.89
2016-10-04T23:58:09.944Z,1037.87
